Time;durP1;ratioP1;P1;durP2;ratioP2;P2;SDS_P1;SDS_P2;PMS_P1;PMS_P2;Temp;Humidity;BMP_temperature;BMP_pressure;BME280_temperature;BME280_humidity;BME280_pressure;Samples;Min_cycle;Max_cycle;Signal;HPM_P1;HPM_P2
2023/01/19 00:01:43;;;;;;;13.30;7.50;;;;;;;7.39;75.72;100129.92;107606;1254;107423;-60
2023/01/19 00:04:11;;;;;;;17.90;7.50;;;;;;;7.35;75.50;100131.98;107627;1252;97951;-59
2023/01/19 00:06:40;;;;;;;17.40;6.70;;;;;;;7.32;75.63;100139.54;107615;1253;97848;-61
2023/01/19 00:09:08;;;;;;;18.30;5.70;;;;;;;7.31;75.47;100147.15;107487;1253;112469;-61
2023/01/19 00:11:37;;;;;;;14.90;6.40;;;;;;;7.28;75.19;100140.83;107601;1254;109184;-60
2023/01/19 00:14:06;;;;;;;16.00;6.70;;;;;;;7.22;75.07;100140.40;107579;1252;108069;-60
2023/01/19 00:16:34;;;;;;;23.20;8.30;;;;;;;7.18;75.27;100140.23;107559;1253;97942;-61
2023/01/19 00:19:03;;;;;;;17.50;7.80;;;;;;;7.15;75.49;100138.35;107606;1252;98393;-59
2023/01/19 00:21:31;;;;;;;18.90;6.80;;;;;;;7.12;75.76;100142.17;107624;1253;112967;-59
2023/01/19 00:23:59;;;;;;;17.60;7.10;;;;;;;7.10;75.72;100143.89;107611;1254;111039;-59
2023/01/19 00:26:28;;;;;;;23.00;6.70;;;;;;;7.05;75.74;100143.04;107611;1254;108142;-60
2023/01/19 00:28:56;;;;;;;21.60;7.70;;;;;;;7.03;75.92;100140.54;107604;1253;98357;-59
2023/01/19 00:31:25;;;;;;;25.70;6.70;;;;;;;7.03;75.98;100138.23;107644;1253;97863;-59
2023/01/19 00:33:53;;;;;;;17.70;7.40;;;;;;;7.04;76.13;100137.48;107635;1253;112245;-60
2023/01/19 00:36:21;;;;;;;20.40;6.50;;;;;;;7.04;76.79;100133.68;107601;1252;110101;-59
2023/01/19 00:38:50;;;;;;;22.80;6.90;;;;;;;7.10;77.54;100130.73;107551;1254;108442;-60
2023/01/19 00:42:38;;;;;;;20.10;6.80;;;;;;;7.15;77.81;100134.60;107608;1253;97698;-59
2023/01/19 00:44:07;;;;;;;21.80;6.60;;;;;;;7.21;78.34;100140.12;107502;1253;97841;-60
2023/01/19 00:46:35;;;;;;;21.20;7.70;;;;;;;7.27;78.32;100141.04;107539;1254;112322;-60
2023/01/19 00:49:04;;;;;;;19.70;6.60;;;;;;;7.32;78.35;100135.83;107567;1253;109148;-60
2023/01/19 00:51:33;;;;;;;24.00;6.90;;;;;;;7.37;78.54;100133.60;107613;1253;108109;-59
2023/01/19 00:54:03;;;;;;;14.70;5.90;;;;;;;7.43;78.46;100132.63;107585;1253;97899;-60
2023/01/19 00:56:32;;;;;;;15.50;5.60;;;;;;;7.45;78.77;100132.77;107578;1256;97870;-60
2023/01/19 00:59:00;;;;;;;18.00;5.80;;;;;;;7.48;79.04;100128.43;107611;1253;112032;-59
2023/01/19 01:01:29;;;;;;;14.60;5.60;;;;;;;7.49;78.94;100129.52;107455;1254;110262;-60
2023/01/19 01:04:13;;;;;;;16.10;5.60;;;;;;;7.51;79.82;100126.02;107570;1252;108718;-59
2023/01/19 01:06:41;;;;;;;16.80;5.30;;;;;;;7.56;80.32;100123.27;107530;1252;97931;-60
2023/01/19 01:09:13;;;;;;;14.80;5.90;;;;;;;7.61;80.07;100116.96;107611;1253;97802;-59
2023/01/19 01:11:42;;;;;;;17.00;6.00;;;;;;;7.64;80.03;100112.05;107637;1254;112523;-58
2023/01/19 01:14:11;;;;;;;14.90;4.90;;;;;;;7.67;80.10;100111.94;107598;1253;108713;-60
2023/01/19 01:16:40;;;;;;;17.10;6.30;;;;;;;7.71;80.35;100113.92;107538;1254;108802;-63
2023/01/19 01:19:08;;;;;;;16.80;5.00;;;;;;;7.75;80.50;100118.61;107562;1253;97901;-59
2023/01/19 01:21:36;;;;;;;19.20;5.30;;;;;;;7.78;80.61;100121.51;107630;1253;97747;-59
2023/01/19 01:24:06;;;;;;;24.10;5.80;;;;;;;7.79;81.21;100116.77;107557;1254;111139;-60
2023/01/19 01:26:34;;;;;;;16.10;4.20;;;;;;;7.81;81.18;100111.77;107546;1254;110122;-59
2023/01/19 01:29:05;;;;;;;16.60;4.50;;;;;;;7.85;81.50;100107.73;107535;1253;107582;-60
2023/01/19 01:31:33;;;;;;;18.80;5.60;;;;;;;7.87;81.18;100107.92;107595;1253;97739;-60
2023/01/19 01:34:02;;;;;;;20.20;4.40;;;;;;;7.89;81.17;100103.26;107593;1253;97844;-59
2023/01/19 01:36:32;;;;;;;20.40;4.50;;;;;;;7.89;81.16;100107.23;107601;1255;112662;-59
2023/01/19 01:39:00;;;;;;;16.60;4.90;;;;;;;7.90;81.49;100104.10;107555;1254;111016;-60
2023/01/19 01:41:29;;;;;;;14.30;4.10;;;;;;;7.90;81.15;100098.94;107531;1253;108428;-60
2023/01/19 01:44:00;;;;;;;15.20;5.00;;;;;;;7.90;81.16;100101.08;107576;1254;97854;-60
2023/01/19 01:46:30;;;;;;;19.20;4.90;;;;;;;7.90;81.28;100096.94;107583;1252;97819;-60
2023/01/19 01:49:04;;;;;;;15.20;5.00;;;;;;;7.90;81.37;100098.92;107502;1254;111350;-60
2023/01/19 01:51:47;;;;;;;14.60;4.30;;;;;;;7.88;81.26;100097.79;107638;1254;110574;-61
2023/01/19 01:54:26;;;;;;;19.20;5.10;;;;;;;7.87;81.27;100089.89;107580;1253;108382;-62
2023/01/19 01:56:59;;;;;;;13.40;4.10;;;;;;;7.84;81.29;100089.36;107530;1254;97825;-59
2023/01/19 01:59:37;;;;;;;;;;;;;;;7.84;81.35;100089.08;107591;1252;97716;-60
2023/01/19 02:02:50;;;;;;;14.80;4.20;;;;;;;7.85;81.61;100088.80;107608;1253;112260;-59
2023/01/19 02:05:35;;;;;;;29.70;7.40;;;;;;;7.88;81.52;100086.09;107618;1253;110033;-60
2023/01/19 02:13:50;;;;;;;19.40;5.60;;;;;;;7.87;81.35;100070.77;107603;1256;97735;-60
2023/01/19 02:16:19;;;;;;;24.00;5.90;;;;;;;7.85;81.37;100069.14;107579;1252;112008;-60
2023/01/19 02:18:47;;;;;;;15.60;4.50;;;;;;;7.83;81.66;100066.81;107584;1255;109989;-60
2023/01/19 02:21:27;;;;;;;19.30;6.20;;;;;;;7.80;81.83;100066.71;107545;1254;111351;-60
2023/01/19 02:24:00;;;;;;;14.50;4.40;;;;;;;7.76;81.68;100067.09;107619;1254;97859;-60
2023/01/19 02:26:34;;;;;;;16.60;4.30;;;;;;;7.74;81.67;100067.12;107599;1256;97903;-61
2023/01/19 02:29:20;;;;;;;13.60;3.80;;;;;;;7.71;81.65;100064.86;107637;1253;112705;-59
2023/01/19 02:31:49;;;;;;;14.40;4.10;;;;;;;7.66;81.58;100069.58;107614;1254;110117;-60
2023/01/19 02:34:19;;;;;;;19.10;4.20;;;;;;;7.65;81.99;100068.02;107592;1253;107913;-60
2023/01/19 02:36:52;;;;;;;16.80;3.60;;;;;;;7.64;81.65;100073.48;107581;1252;97818;-61
2023/01/19 02:39:32;;;;;;;17.00;4.00;;;;;;;7.64;81.68;100069.41;107556;1252;97717;-60
2023/01/19 02:42:14;;;;;;;11.30;4.30;;;;;;;7.61;81.53;100078.54;107597;1253;111452;-61
2023/01/19 02:44:47;;;;;;;13.50;4.40;;;;;;;7.62;81.67;100080.46;107555;1253;109918;-60
2023/01/19 02:47:15;;;;;;;13.30;4.40;;;;;;;7.64;81.90;100084.21;107564;1252;108255;-59
2023/01/19 02:49:52;;;;;;;25.90;5.00;;;;;;;7.65;81.88;100075.52;107546;1254;97887;-59
2023/01/19 02:52:21;;;;;;;15.00;4.40;;;;;;;7.66;81.76;100060.30;107609;1252;98402;-59
2023/01/19 02:55:18;;;;;;;17.70;5.30;;;;;;;7.66;81.75;100063.00;107569;1256;112163;-62
2023/01/19 02:58:00;;;;;;;21.40;5.90;;;;;;;7.64;81.52;100049.39;107463;1256;111040;-59
2023/01/19 03:00:50;;;;;;;15.60;6.30;;;;;;;7.61;81.78;100036.30;107616;1255;107631;-59
2023/01/19 03:03:40;;;;;;;18.90;5.30;;;;;;;7.58;81.84;100037.41;107639;1253;97954;-60
2023/01/19 03:06:30;;;;;;;14.20;3.80;;;;;;;7.57;81.96;100041.05;107515;1254;98339;-59
2023/01/19 03:09:20;;;;;;;17.20;4.70;;;;;;;7.56;81.82;100044.73;107613;1254;112154;-59
2023/01/19 03:12:28;;;;;;;15.00;5.30;;;;;;;7.55;82.33;100042.56;107633;1253;109084;-60
2023/01/19 03:15:03;;;;;;;11.10;3.40;;;;;;;7.51;81.99;100047.10;107570;1253;107650;-59
2023/01/19 03:17:34;;;;;;;15.00;3.10;;;;;;;7.51;82.47;100044.98;107554;1256;99160;-61
2023/01/19 03:20:05;;;;;;;19.00;3.90;;;;;;;7.54;82.51;100038.72;107600;1254;97745;-60
2023/01/19 03:22:34;;;;;;;17.60;4.20;;;;;;;7.55;83.22;100027.17;107653;1253;111414;-60
2023/01/19 03:25:03;;;;;;;18.80;3.50;;;;;;;7.56;83.03;100032.45;107655;1252;109248;-58
2023/01/19 03:27:39;;;;;;;20.60;4.40;;;;;;;7.53;83.23;100024.10;107568;1254;107702;-59
2023/01/19 03:30:25;;;;;;;21.50;6.40;;;;;;;7.50;83.46;100018.82;107487;1253;98515;-59
2023/01/19 03:33:06;;;;;;;23.30;7.10;;;;;;;7.49;83.35;100009.48;107568;1254;97922;-60
2023/01/19 03:35:38;;;;;;;22.80;6.90;;;;;;;7.47;83.35;100010.41;107518;1256;112036;-60
2023/01/19 03:38:13;;;;;;;18.40;6.90;;;;;;;7.44;83.35;100027.41;107540;1253;110843;-59
2023/01/19 03:40:44;;;;;;;17.80;6.00;;;;;;;7.38;84.69;100027.36;107596;1256;109579;-59
2023/01/19 03:43:15;;;;;;;25.40;6.30;;;;;;;7.35;84.04;100024.45;107480;1253;97902;-59
2023/01/19 03:45:45;;;;;;;20.10;4.70;;;;;;;7.34;83.80;100016.16;107588;1253;98709;-59
2023/01/19 03:48:13;;;;;;;20.30;5.10;;;;;;;7.34;84.03;100017.21;107574;1253;112254;-59
2023/01/19 03:50:42;;;;;;;20.30;5.30;;;;;;;7.35;83.87;100020.72;107590;1253;110725;-59
2023/01/19 03:53:13;;;;;;;20.70;5.80;;;;;;;7.34;83.89;100027.94;107624;1255;108296;-60
2023/01/19 03:55:46;;;;;;;24.30;5.60;;;;;;;7.31;84.67;100037.94;107552;1252;97819;-60
2023/01/19 03:58:14;;;;;;;15.90;3.90;;;;;;;7.31;84.72;100030.47;107574;1253;97925;-59
2023/01/19 04:00:43;;;;;;;19.80;3.80;;;;;;;7.33;84.41;100038.17;107587;1254;110947;-59
2023/01/19 04:03:16;;;;;;;19.60;4.20;;;;;;;7.33;84.10;100036.95;107600;1254;109203;-60
2023/01/19 04:05:44;;;;;;;18.10;3.40;;;;;;;7.31;84.12;100036.41;107569;1254;108702;-59
2023/01/19 04:08:14;;;;;;;23.00;3.50;;;;;;;7.26;83.74;100036.79;107554;1253;97774;-59
2023/01/19 04:10:42;;;;;;;22.30;5.30;;;;;;;7.24;83.55;100035.94;107588;1254;98383;-61
2023/01/19 04:13:10;;;;;;;19.70;5.60;;;;;;;7.21;83.76;100032.44;107546;1252;111338;-59
2023/01/19 04:15:39;;;;;;;15.90;4.00;;;;;;;7.17;83.64;100031.70;107572;1254;109828;-59
2023/01/19 04:18:07;;;;;;;20.60;4.10;;;;;;;7.08;83.15;100028.50;107529;1254;109342;-60
2023/01/19 04:20:36;;;;;;;17.10;4.50;;;;;;;7.02;83.32;100027.61;107602;1254;98017;-59
2023/01/19 04:23:04;;;;;;;15.60;4.00;;;;;;;6.97;83.18;100022.58;107598;1254;98034;-58
2023/01/19 04:25:33;;;;;;;21.30;5.50;;;;;;;6.92;83.34;100019.90;107616;1253;111870;-59
2023/01/19 04:28:01;;;;;;;28.70;5.80;;;;;;;6.90;83.29;100019.00;107603;1256;109260;-59
2023/01/19 04:30:30;;;;;;;23.80;4.90;;;;;;;6.88;83.19;100033.95;107580;1253;108343;-60
2023/01/19 04:32:59;;;;;;;26.80;6.60;;;;;;;6.85;83.45;100037.59;107572;1253;97841;-59
2023/01/19 04:35:28;;;;;;;20.60;4.40;;;;;;;6.85;83.52;100027.29;107597;1256;97841;-59
2023/01/19 04:37:56;;;;;;;25.90;5.30;;;;;;;6.84;84.11;100015.10;107574;1253;112568;-60
2023/01/19 04:40:25;;;;;;;38.30;6.20;;;;;;;6.80;85.15;100011.66;107597;1254;110246;-60
2023/01/19 04:42:53;;;;;;;57.00;14.90;;;;;;;6.86;86.43;100018.83;107615;1254;108130;-59
2023/01/19 04:45:22;;;;;;;45.50;10.80;;;;;;;6.88;86.17;100023.42;107613;1254;97733;-59
2023/01/19 04:47:50;;;;;;;29.00;9.00;;;;;;;6.88;85.76;100023.06;107601;1254;98490;-58
2023/01/19 04:50:19;;;;;;;35.70;11.00;;;;;;;6.89;85.41;100024.41;107639;1253;111742;-59
2023/01/19 04:52:47;;;;;;;34.10;7.40;;;;;;;6.90;85.09;100012.41;107584;1254;110150;-59
2023/01/19 04:55:16;;;;;;;26.50;7.10;;;;;;;6.88;84.86;100010.59;107519;1256;108577;-60
2023/01/19 04:57:45;;;;;;;30.20;5.40;;;;;;;6.88;84.69;100014.70;107552;1253;97842;-60
2023/01/19 05:00:16;;;;;;;32.20;8.60;;;;;;;6.84;84.47;100017.92;107572;1253;97828;-59
2023/01/19 05:02:45;;;;;;;76.20;20.00;;;;;;;6.80;84.39;100022.55;107633;1252;111273;-59
2023/01/19 05:05:15;;;;;;;41.20;10.10;;;;;;;6.75;84.44;100034.17;107561;1253;109926;-60
2023/01/19 05:07:43;;;;;;;34.10;8.50;;;;;;;6.70;84.29;100039.22;107539;1252;108649;-60
2023/01/19 05:10:12;;;;;;;30.20;7.90;;;;;;;6.69;84.26;100040.73;107565;1254;98478;-60
2023/01/19 05:12:41;;;;;;;28.60;7.40;;;;;;;6.70;84.71;100037.63;107656;1253;98530;-59
2023/01/19 05:15:10;;;;;;;44.60;12.50;;;;;;;6.72;84.79;100045.43;107544;1253;111979;-58
2023/01/19 05:17:38;;;;;;;75.40;18.30;;;;;;;6.75;85.38;100037.57;107565;1253;109021;-59
2023/01/19 05:20:09;;;;;;;60.90;23.70;;;;;;;6.77;85.61;100035.98;107504;1253;108406;-61
2023/01/19 05:22:38;;;;;;;43.20;11.70;;;;;;;6.77;85.55;100041.10;107503;1254;97744;-59
2023/01/19 05:25:07;;;;;;;44.20;14.30;;;;;;;6.80;86.05;100036.25;107514;1256;98570;-61
2023/01/19 05:27:37;;;;;;;41.30;15.10;;;;;;;6.84;85.86;100030.89;107523;1256;111420;-60
2023/01/19 05:30:06;;;;;;;69.40;17.00;;;;;;;6.87;85.55;100019.03;107507;1254;108916;-59
2023/01/19 05:32:35;;;;;;;57.40;15.70;;;;;;;6.90;85.47;100015.28;107519;1254;107577;-58
2023/01/19 05:35:04;;;;;;;88.70;26.70;;;;;;;6.87;85.82;100021.40;107472;1254;97855;-59
2023/01/19 05:37:32;;;;;;;92.80;38.50;;;;;;;6.88;86.50;100023.62;107525;1253;98479;-60
2023/01/19 05:40:00;;;;;;;71.20;22.20;;;;;;;6.94;86.55;100026.33;107544;1254;113047;-59
2023/01/19 05:42:28;;;;;;;54.60;17.90;;;;;;;7.00;86.31;100027.77;107532;1253;110140;-60
2023/01/19 05:44:59;;;;;;;35.30;8.70;;;;;;;7.02;86.01;100029.90;107475;1256;109519;-59
2023/01/19 05:47:28;;;;;;;46.20;9.10;;;;;;;7.01;85.67;100017.36;107495;1252;97834;-60
2023/01/19 05:49:57;;;;;;;47.10;8.40;;;;;;;7.02;85.70;100019.45;107550;1253;98392;-59
2023/01/19 05:52:25;;;;;;;45.60;14.00;;;;;;;6.99;86.08;100029.09;107529;1256;112717;-60
2023/01/19 05:54:54;;;;;;;41.50;8.60;;;;;;;6.98;86.37;100031.73;107551;1254;109231;-60
2023/01/19 05:57:22;;;;;;;48.80;10.20;;;;;;;7.00;86.28;100038.14;107563;1253;109094;-60
2023/01/19 05:59:51;;;;;;;38.30;7.70;;;;;;;7.01;86.17;100044.47;107467;1254;97847;-60
2023/01/19 06:02:20;;;;;;;56.40;19.80;;;;;;;7.03;86.24;100047.66;107497;1253;97928;-60
2023/01/19 06:04:49;;;;;;;48.10;9.30;;;;;;;7.07;86.85;100042.90;107616;1253;112040;-59
2023/01/19 06:07:17;;;;;;;44.80;6.90;;;;;;;7.15;87.71;100032.56;107516;1253;109389;-60
2023/01/19 06:09:46;;;;;;;47.60;7.60;;;;;;;7.29;88.03;100037.48;107527;1256;108080;-60
2023/01/19 06:12:14;;;;;;;59.20;8.40;;;;;;;7.39;87.89;100032.13;107570;1254;97892;-59
2023/01/19 06:14:42;;;;;;;39.90;6.40;;;;;;;7.45;87.40;100032.48;107480;1253;97857;-60
2023/01/19 06:17:10;;;;;;;45.00;7.90;;;;;;;7.47;87.08;100037.83;107580;1254;112858;-59
2023/01/19 06:19:39;;;;;;;34.40;5.30;;;;;;;7.48;86.79;100031.63;107587;1253;109844;-59
2023/01/19 06:22:08;;;;;;;46.30;7.50;;;;;;;7.47;86.20;100042.11;107570;1252;108759;-59
2023/01/19 06:24:36;;;;;;;43.20;6.70;;;;;;;7.43;86.04;100042.31;107551;1252;98531;-59
2023/01/19 06:27:06;;;;;;;43.70;7.80;;;;;;;7.45;86.44;100041.09;107581;1254;98382;-59
2023/01/19 06:29:35;;;;;;;37.70;6.90;;;;;;;7.49;86.56;100037.83;107543;1256;111370;-58
2023/01/19 06:32:04;;;;;;;39.40;5.70;;;;;;;7.56;86.53;100037.13;107599;1253;108890;-60
2023/01/19 06:34:32;;;;;;;43.40;6.60;;;;;;;7.60;86.70;100035.45;107585;1253;107539;-60
2023/01/19 06:37:01;;;;;;;50.30;7.40;;;;;;;7.64;86.60;100024.24;107591;1253;97826;-59
2023/01/19 06:39:29;;;;;;;50.80;7.80;;;;;;;7.67;86.47;100017.67;107514;1253;98363;-59
2023/01/19 06:41:57;;;;;;;54.90;8.30;;;;;;;7.68;85.98;100026.73;107511;1253;111615;-59
2023/01/19 06:44:26;;;;;;;48.30;8.90;;;;;;;7.71;86.06;100033.43;107536;1254;110063;-59
2023/01/19 06:46:54;;;;;;;55.00;7.90;;;;;;;7.75;86.10;100050.02;107593;1254;106356;-60
2023/01/19 06:49:42;;;;;;;50.00;9.20;;;;;;;7.83;86.31;100050.08;107529;1256;97848;-59
2023/01/19 06:52:16;;;;;;;54.70;8.70;;;;;;;7.90;86.05;100049.05;107535;1254;97720;-60
2023/01/19 06:54:45;;;;;;;41.70;7.40;;;;;;;7.99;86.39;100040.76;107583;1252;111496;-60
2023/01/19 06:57:14;;;;;;;35.10;6.70;;;;;;;8.05;85.95;100043.84;107547;1254;108516;-58
2023/01/19 06:59:42;;;;;;;40.70;8.00;;;;;;;8.09;85.85;100042.92;107558;1254;108746;-60
2023/01/19 07:02:10;;;;;;;57.20;9.30;;;;;;;8.16;85.77;100040.20;107484;1254;97845;-59
2023/01/19 07:04:55;;;;;;;41.00;6.70;;;;;;;8.21;85.48;100040.09;107602;1252;97695;-60
2023/01/19 07:07:25;;;;;;;28.10;5.90;;;;;;;8.27;85.59;100034.19;107597;1252;111836;-59
2023/01/19 07:09:53;;;;;;;33.90;5.20;;;;;;;8.36;85.91;100037.45;107560;1256;109783;-59
2023/01/19 07:12:22;;;;;;;41.50;6.90;;;;;;;8.43;85.53;100041.83;107558;1256;106639;-59
2023/01/19 07:14:51;;;;;;;42.60;8.30;;;;;;;8.49;85.32;100041.88;107571;1254;97707;-60
2023/01/19 07:17:20;;;;;;;46.90;8.40;;;;;;;8.55;85.28;100044.89;107479;1253;97944;-59
2023/01/19 07:19:48;;;;;;;50.50;7.00;;;;;;;8.63;85.20;100050.42;107567;1254;111825;-59
2023/01/19 07:22:16;;;;;;;51.50;7.90;;;;;;;8.76;85.82;100048.35;107558;1254;110188;-59
2023/01/19 07:24:44;;;;;;;48.60;10.10;;;;;;;8.93;86.05;100041.58;107480;1253;107724;-60
2023/01/19 07:27:15;;;;;;;43.50;8.90;;;;;;;9.06;85.55;100049.47;107476;1254;97927;-59
2023/01/19 07:29:43;;;;;;;44.30;8.60;;;;;;;9.17;85.23;100047.08;107570;1253;97733;-59
2023/01/19 07:32:12;;;;;;;62.30;11.40;;;;;;;9.27;84.94;100044.84;107551;1254;112400;-60
2023/01/19 07:34:40;;;;;;;41.90;10.70;;;;;;;9.39;85.10;100045.66;107619;1253;109513;-60
2023/01/19 07:37:08;;;;;;;62.30;9.70;;;;;;;9.52;84.95;100049.98;107598;1254;108222;-58
2023/01/19 07:39:37;;;;;;;51.40;10.10;;;;;;;9.64;84.79;100049.04;107530;1253;97851;-59
2023/01/19 07:42:05;;;;;;;54.50;9.40;;;;;;;9.79;84.44;100046.19;107552;1254;98389;-59
2023/01/19 07:44:34;;;;;;;47.30;8.60;;;;;;;9.90;83.94;100044.02;107573;1256;111111;-60
2023/01/19 07:47:06;;;;;;;38.20;6.30;;;;;;;9.99;83.50;100038.29;107507;1254;109718;-59
2023/01/19 07:49:35;;;;;;;44.60;7.30;;;;;;;10.07;82.61;100035.58;107590;1254;108229;-60
2023/01/19 07:52:04;;;;;;;42.70;8.80;;;;;;;10.14;82.80;100041.40;107568;1254;97835;-60
2023/01/19 07:54:32;;;;;;;44.60;8.30;;;;;;;10.20;82.81;100040.61;107598;1254;98296;-59
2023/01/19 07:57:01;;;;;;;42.10;6.60;;;;;;;10.27;82.35;100030.24;107610;1254;111394;-59
2023/01/19 07:59:31;;;;;;;38.30;7.50;;;;;;;10.33;82.31;100032.29;107584;1255;110472;-60
2023/01/19 08:01:59;;;;;;;44.70;7.70;;;;;;;10.41;82.14;100041.54;107569;1253;107603;-59
2023/01/19 08:04:28;;;;;;;40.10;7.10;;;;;;;10.51;82.09;100051.21;107564;1256;97854;-59
2023/01/19 08:06:57;;;;;;;51.40;9.60;;;;;;;10.62;81.65;100049.36;107575;1253;97904;-59
2023/01/19 08:09:25;;;;;;;48.30;6.70;;;;;;;10.76;80.45;100050.33;107568;1256;111525;-59
2023/01/19 08:11:54;;;;;;;53.00;8.20;;;;;;;10.97;81.03;100056.07;107604;1254;109792;-59
2023/01/19 08:14:22;;;;;;;49.60;8.00;;;;;;;11.18;80.15;100059.54;107549;1253;107342;-59
2023/01/19 08:16:50;;;;;;;41.80;7.20;;;;;;;11.40;78.15;100060.14;107451;1256;97916;-59
2023/01/19 08:19:19;;;;;;;37.90;6.60;;;;;;;11.64;76.31;100055.89;107586;1253;97736;-60
2023/01/19 08:21:47;;;;;;;42.10;6.60;;;;;;;11.82;76.27;100047.52;107609;1254;112238;-60
2023/01/19 08:24:21;;;;;;;37.50;6.10;;;;;;;12.02;75.63;100046.23;107554;1254;109763;-60
2023/01/19 08:26:57;;;;;;;33.60;6.20;;;;;;;12.21;73.96;100045.44;107571;1254;108787;-60
2023/01/19 08:29:26;;;;;;;41.10;6.40;;;;;;;12.43;72.52;100040.98;107585;1254;98465;-60
2023/01/19 08:31:56;;;;;;;34.30;6.40;;;;;;;12.63;71.31;100037.73;107585;1254;97825;-60
2023/01/19 08:34:25;;;;;;;28.60;5.80;;;;;;;12.79;70.71;100025.89;107607;1254;111377;-60
2023/01/19 08:36:53;;;;;;;57.30;8.20;;;;;;;12.93;70.19;100022.73;107574;1253;109747;-59
2023/01/19 08:39:22;;;;;;;32.50;6.40;;;;;;;13.07;68.90;100017.77;107564;1252;109221;-58
2023/01/19 08:41:51;;;;;;;42.40;6.00;;;;;;;13.20;68.57;100004.44;107548;1253;97825;-60
2023/01/19 08:44:20;;;;;;;35.10;6.40;;;;;;;13.37;67.29;99999.97;107573;1254;98406;-59
2023/01/19 08:46:48;;;;;;;44.20;6.90;;;;;;;13.60;66.63;100007.96;107551;1253;112838;-59
2023/01/19 08:49:17;;;;;;;36.80;6.40;;;;;;;13.97;65.66;100005.91;107566;1254;109784;-60
2023/01/19 08:51:45;;;;;;;44.60;7.90;;;;;;;14.56;63.62;99993.08;107544;1254;108510;-59
2023/01/19 08:54:15;;;;;;;44.60;8.40;;;;;;;15.15;62.45;99994.95;107538;1254;98442;-59
2023/01/19 08:56:45;;;;;;;37.10;7.00;;;;;;;15.67;61.48;99987.63;107558;1256;97850;-60
2023/01/19 08:59:15;;;;;;;36.60;6.30;;;;;;;16.15;58.57;99985.77;107540;1256;112507;-60
2023/01/19 09:01:43;;;;;;;37.40;7.30;;;;;;;16.57;57.48;99994.64;107514;1254;110016;-60
2023/01/19 09:04:12;;;;;;;34.60;6.50;;;;;;;16.93;56.19;99992.41;107542;1253;107344;-59
2023/01/19 09:06:41;;;;;;;36.60;6.60;;;;;;;17.25;55.50;99992.16;107530;1254;97860;-60
2023/01/19 09:09:09;;;;;;;36.50;7.30;;;;;;;17.58;55.84;99990.63;107553;1254;98248;-60
2023/01/19 09:11:37;;;;;;;29.90;6.00;;;;;;;17.97;54.68;99991.17;107548;1254;112090;-59
2023/01/19 09:14:07;;;;;;;35.50;6.00;;;;;;;18.29;52.02;99991.78;107538;1254;109551;-60
2023/01/19 09:16:35;;;;;;;32.10;5.80;;;;;;;18.60;51.69;99997.70;107532;1254;107764;-60
2023/01/19 09:19:07;;;;;;;28.60;6.80;;;;;;;18.89;50.15;99990.71;107569;1254;97845;-60
2023/01/19 09:21:35;;;;;;;32.70;6.80;;;;;;;19.13;49.70;99996.75;107590;1254;98478;-60
2023/01/19 09:24:04;;;;;;;36.80;5.90;;;;;;;19.46;47.23;99998.04;107554;1253;111834;-60
2023/01/19 09:26:32;;;;;;;30.70;5.90;;;;;;;19.58;47.20;99989.27;107572;1254;109907;-60
2023/01/19 09:29:01;;;;;;;36.10;6.20;;;;;;;19.84;46.74;99984.11;107507;1254;108746;-60
2023/01/19 09:31:30;;;;;;;45.30;7.20;;;;;;;20.10;46.72;99983.98;107528;1254;97830;-60
2023/01/19 09:33:58;;;;;;;31.20;6.20;;;;;;;20.45;44.95;99978.23;107593;1254;98360;-59
2023/01/19 09:36:27;;;;;;;31.20;6.20;;;;;;;20.72;43.62;99976.87;107565;1256;113226;-60
2023/01/19 09:38:55;;;;;;;34.60;6.00;;;;;;;20.92;42.65;99974.35;107577;1254;109577;-60
2023/01/19 09:41:25;;;;;;;31.40;5.50;;;;;;;21.06;42.01;99974.30;107561;1254;107435;-59
2023/01/19 09:43:56;;;;;;;38.50;6.00;;;;;;;21.17;41.68;99971.91;107565;1256;98001;-60
2023/01/19 09:46:34;;;;;;;34.10;6.30;;;;;;;21.38;40.53;99973.21;107550;1253;97886;-60
2023/01/19 09:49:11;;;;;;;33.30;5.70;;;;;;;21.52;41.15;99971.01;107591;1254;112713;-60
2023/01/19 09:51:44;;;;;;;52.10;6.90;;;;;;;21.80;39.75;99980.16;107558;1254;110266;-60
2023/01/19 09:54:27;;;;;;;48.40;6.20;;;;;;;21.89;39.32;99973.16;107556;1254;108234;-59
2023/01/19 09:56:55;;;;;;;30.30;5.00;;;;;;;22.13;39.12;99967.76;107504;1254;97892;-59
2023/01/19 09:59:27;;;;;;;30.30;5.70;;;;;;;22.29;38.94;99959.56;107574;1256;97850;-59
2023/01/19 10:01:59;;;;;;;33.60;6.60;;;;;;;22.46;38.99;99957.03;107578;1254;112221;-59
2023/01/19 10:04:41;;;;;;;31.10;7.10;;;;;;;22.65;38.69;99955.45;107543;1256;110323;-59
2023/01/19 10:08:02;;;;;;;35.60;5.60;;;;;;;22.93;37.25;99963.92;107558;1254;108589;-60
2023/01/19 10:10:31;;;;;;;38.70;6.40;;;;;;;23.10;37.14;99966.77;107396;1256;97861;-59
2023/01/19 10:13:18;;;;;;;35.50;6.30;;;;;;;23.20;37.05;99962.48;107541;1254;97735;-60
2023/01/19 10:16:11;;;;;;;24.60;5.90;;;;;;;23.36;38.57;99962.33;107585;1254;111346;-58
2023/01/19 10:18:50;;;;;;;25.00;7.00;;;;;;;23.84;36.76;99957.89;107535;1253;110015;-58
2023/01/19 10:21:41;;;;;;;37.40;6.60;;;;;;;24.11;36.91;99964.37;107476;1255;107729;-59
2023/01/19 10:24:32;;;;;;;52.70;6.80;;;;;;;24.43;35.40;99960.01;107487;1255;97838;-60
2023/01/19 10:27:00;;;;;;;33.90;6.00;;;;;;;24.60;34.15;99960.73;107535;1259;97927;-59
2023/01/19 10:29:36;;;;;;;41.10;6.00;;;;;;;24.64;34.05;99960.90;107512;1254;112152;-59
2023/01/19 10:32:13;;;;;;;38.70;6.90;;;;;;;24.69;34.30;99965.35;107574;1253;109833;-59
2023/01/19 10:34:42;;;;;;;34.10;6.10;;;;;;;24.78;34.20;99960.98;107563;1256;108269;-58
2023/01/19 10:37:24;;;;;;;39.30;6.10;;;;;;;24.88;33.39;99966.33;107563;1254;97868;-60
2023/01/19 10:39:56;;;;;;;34.00;6.50;;;;;;;24.87;34.27;99962.34;107571;1256;97837;-60
2023/01/19 10:42:28;;;;;;;31.90;6.80;;;;;;;25.02;33.26;99963.30;107561;1256;110788;-61
2023/01/19 10:44:57;;;;;;;29.30;6.60;;;;;;;25.13;32.82;99960.04;106808;1254;996710;-59
2023/01/19 10:47:35;;;;;;;37.10;6.50;;;;;;;25.17;34.32;99957.98;107538;1257;107712;-59
2023/01/19 10:50:39;;;;;;;33.30;5.90;;;;;;;25.46;34.43;99953.02;107610;1254;97835;-60
2023/01/19 10:53:19;;;;;;;29.70;6.90;;;;;;;25.94;33.23;99954.14;107211;1254;98508;-60
2023/01/19 10:56:21;;;;;;;26.00;5.30;;;;;;;26.25;33.64;99952.50;107587;1256;111901;-60
2023/01/19 10:58:50;;;;;;;36.70;6.50;;;;;;;26.60;33.05;99951.38;107464;1259;109702;-58
2023/01/19 11:01:23;;;;;;;40.90;6.00;;;;;;;26.91;30.46;99947.73;107562;1257;107680;-59
2023/01/19 11:03:54;;;;;;;34.60;6.10;;;;;;;26.99;30.44;99934.52;107521;1257;97852;-59
2023/01/19 11:06:29;;;;;;;35.70;6.80;;;;;;;27.10;29.73;99938.64;107625;1257;98604;-59
2023/01/19 11:09:15;;;;;;;45.20;6.80;;;;;;;27.20;30.43;99928.41;107550;1256;111979;-59
2023/01/19 11:11:50;;;;;;;54.20;7.40;;;;;;;27.44;30.82;99926.67;107575;1253;108748;-60
2023/01/19 11:14:22;;;;;;;32.80;6.40;;;;;;;27.63;30.67;99923.65;107597;1257;107815;-59
2023/01/19 11:16:55;;;;;;;59.50;8.20;;;;;;;27.92;30.17;99922.90;107550;1257;97889;-59
2023/01/19 11:19:32;;;;;;;49.50;6.70;;;;;;;28.18;28.95;99920.55;107602;1257;97936;-59
2023/01/19 11:22:25;;;;;;;41.60;5.90;;;;;;;28.31;27.88;99925.98;107543;1255;113002;-60
2023/01/19 11:25:02;;;;;;;42.50;5.90;;;;;;;28.42;26.14;99924.99;107589;1254;110539;-61
2023/01/19 11:27:35;;;;;;;32.70;6.40;;;;;;;28.25;27.12;99912.05;107526;1253;109371;-61
2023/01/19 11:30:21;;;;;;;41.30;6.40;;;;;;;28.37;26.94;99914.59;107559;1256;99405;-60
2023/01/19 11:32:50;;;;;;;27.90;6.00;;;;;;;28.45;25.57;99917.75;107565;1254;97844;-60
2023/01/19 11:35:32;;;;;;;37.30;6.60;;;;;;;28.31;26.16;99918.25;107573;1254;110947;-61
2023/01/19 11:38:10;;;;;;;33.90;5.80;;;;;;;28.18;27.29;99910.66;107604;1256;111004;-60
2023/01/19 11:40:40;;;;;;;47.30;7.40;;;;;;;28.24;26.43;99918.17;107538;1253;107928;-60